Ride Results

Bago Bush Ride (15-07-2017)
Ride distance: 80.0 km

Outcomes - Bago Bush Ride (15-07-2017)
Division No. of Entries Retired / DNE Completed Withdrawn Ineligible V/O Percentage Completed
HW 4 - 3 - - 1 75.00%
MW 19 - 18 1 - - 94.74%
LW 11 - 10 - - 1 90.91%
JN 5 - 4 1 - - 80.00%
Totals 39 - 35 2 - 2 89.74%
Results - Bago Bush Ride (15-07-2017)
No. Rider Horse Place Time Leg Speeds Total
Km/Hr
H/R bpm
Heavyweight
10 Tami Parnell Zuhra Zaleksii 1 (BC) 7:20:00 10.7, 11.0 10.91 34, 42, 47 (Avg:44)
18 Kate Johnson Ellie 2 7:56:00 9.7, 10.4 10.08 33, 46, 44 (Avg:45)
29 Keith Sumpner Fonda 3 9:02:00 8.6, 9.0 8.86 36, 46, 56 (Avg:51)
31 Lyall Cameron Hazeldean Halim Heart Rate L1 0:00:00 6.9 - 42, 75 (Avg:75)
Middleweight
16 Billie Barron Virgil 1 6:18:00 11.4, 14.2 12.70 30, 46, 41 (Avg:43)
7 Sharon Foster Fortaleza Mystical Silver 2 (BC) 6:22:00 10.7, 15.0 12.57 42, 45, 51 (Avg:48)
1 Susan Pritchard Velona El Dargo 3 6:55:00 10.9, 12.3 11.57 36, 41, 60 (Avg:50)
39 Kane Kelso Bonnie Doon Ashquar 4 7:02:00 10.5, 12.3 11.37 40, 47, 45 (Avg:46)
11 Tracey Hutchinson Woodbourne Granite 5 7:51:00 10.7, 9.6 10.19 32, 41, 52 (Avg:46)
21 Monique Echentille Follydown Kadin 6 7:54:00 9.9, 10.3 10.13 36, 43, 55 (Avg:49)
5 Carol Major Anijoa Anna 6 7:54:00 9.9, 10.3 10.13 35, 40, 48 (Avg:44)
22 Dean Walkom Tall Timbers Roberto 6 7:54:00 9.9, 10.3 10.13 38, 44, 54 (Avg:49)
15 Thomas Hermann Wasabi 9 7:59:00 9.7, 10.3 10.02 35, 44, 45 (Avg:44)
36 Gil Stevenson Thalaba Touch of Gold 9 7:59:00 9.9, 10.1 10.02 35, 44, 48 (Avg:46)
26 Michele Ladmore Azale Aladdin 11 8:33:00 9.1, 9.5 9.36 34, 49, 55 (Avg:52)
27 Nicole Smith Malvern Harmony 12 8:42:00 8.6, 9.8 9.20 33, 44, 48 (Avg:46)
34 Heather Parry Mishael 13 8:49:00 8.6, 9.5 9.07 30, 43, 55 (Avg:49)
17 Ashley Thomas Glenelen Park Phoenix 13 8:49:00 8.6, 9.5 9.07 42, 44, 49 (Avg:46)
35 Nicolle Brown Prince 15 9:02:00 8.6, 9.0 8.86 35, 44, 57 (Avg:50)
38 Judith Burton Woodbourne Kitty Hawk 16 9:35:00 7.8, 8.8 8.35 29, 35, 39 (Avg:37)
19 Sara Pellegrini Conderosa Agamemnon 16 9:35:00 7.5, 9.3 8.35 42, 45, 52 (Avg:48)
14 Ruth Van der Wegen Attallah Soulita 18 9:43:00 6.9, 10.1 8.23 30, 35, 45 (Avg:40)
6 Christopher Schofield Bradali Ice N Rain Withdrawn L1 0:00:00 - - 40, 41 (Avg:41)
Lightweight
13 Miki Bell Flemingo Papilion 1 7:00:00 10.9, 11.9 11.43 36, 54, 53 (Avg:53)
12 Clare Fleming Aloha Desert Thor 1 (BC) 7:00:00 10.8, 12.0 11.43 31, 42, 47 (Avg:44)
33 Elaine Kirby Turingal Park Nicholas 3 7:29:00 9.5, 12.0 10.69 32, 44, 53 (Avg:48)
4 Sue Todd Shakari Bear 4 7:54:00 9.9, 10.3 10.13 31, 40, 47 (Avg:43)
24 Tiana Baldock Pumba 5 7:56:00 9.4, 10.7 10.08 34, 39, 42 (Avg:40)
2 Jessica Mitchell Orion 6 8:33:00 9.1, 9.5 9.36 36, 50, 58 (Avg:54)
32 Shannen Thorsby Newbury Shaklan's Impact 6 8:33:00 9.1, 9.5 9.36 35, 45, 48 (Avg:46)
28 Elizabeth Moir Kenya s Gold 8 8:42:00 8.6, 9.8 9.20 26, 37, 45 (Avg:41)
23 Malcolm Matters Mango Man 9 9:05:00 8.5, 9.0 8.81 33, 40, 46 (Avg:43)
30 Julia Morgillo Woodbourne Mr Brown 10 9:35:00 7.8, 8.8 8.35 39, 50, 59 (Avg:54)
3 Renee Schneider Badia Just Rosie Lame L2 0:00:00 11.4, 13.8 - 60, 39, 51 (Avg:45)
Junior
9 Isabel Foster Briallyn Alimah 1 (BC) 6:22:00 10.7, 15.0 12.57 29, 43, 54 (Avg:48)
37 Scarlet McQueen Elfar Kaspa 2 6:59:00 10.5, 12.4 11.46 39, 45, 53 (Avg:49)
25 Takira Baldock Saladah 3 7:56:00 9.4, 10.7 10.08 34, 35, 40 (Avg:37)
20 Gabrielle Worth Conderosa Assim 4 9:35:00 7.5, 9.3 8.35 34, 39, 46 (Avg:42)
8 Modena Schofield-Foster Sharabel Kalarney Withdrawn L1 0:00:00 - - 34, 38 (Avg:38)